Time;durP1;ratioP1;P1;durP2;ratioP2;P2;SDS_P1;SDS_P2;PMS_P1;PMS_P2;Temp;Humidity;BMP_temperature;BMP_pressure;BME280_temperature;BME280_humidity;BME280_pressure;Samples;Min_cycle;Max_cycle;Signal;HPM_P1;HPM_P2
2022/03/24 00:01:34;;;;;;;23.07;17.37;;;9.60;90.00;;;;;;5014718;28;20180;-68
2022/03/24 00:04:00;;;;;;;22.70;17.20;;;9.60;90.10;;;;;;5014489;28;20172;-69
2022/03/24 00:06:26;;;;;;;22.07;16.90;;;9.60;90.20;;;;;;5014248;28;20203;-69
2022/03/24 00:08:51;;;;;;;25.00;18.53;;;9.60;90.10;;;;;;5013147;28;20217;-70
2022/03/24 00:11:17;;;;;;;23.83;17.93;;;9.50;90.20;;;;;;5014121;28;20187;-69
2022/03/24 00:13:43;;;;;;;26.40;18.57;;;9.40;90.20;;;;;;5012964;28;20183;-69
2022/03/24 00:16:10;;;;;;;21.70;16.93;;;9.50;90.30;;;;;;5014628;28;20418;-70
2022/03/24 00:18:35;;;;;;;25.73;17.97;;;9.40;90.30;;;;;;5014301;28;20957;-69
2022/03/24 00:21:02;;;;;;;25.30;18.13;;;9.50;90.40;;;;;;5013955;28;20415;-70
2022/03/24 00:23:28;;;;;;;27.17;17.87;;;9.50;90.50;;;;;;5014556;28;20233;-68
2022/03/24 00:25:53;;;;;;;27.83;18.57;;;9.50;90.60;;;;;;5013972;28;20418;-70
2022/03/24 00:28:19;;;;;;;27.17;18.90;;;9.50;90.70;;;;;;5014407;28;21044;-69
2022/03/24 00:30:45;;;;;;;25.27;17.30;;;9.50;90.70;;;;;;5013667;28;20518;-68
2022/03/24 00:33:11;;;;;;;25.43;18.80;;;9.40;90.90;;;;;;5013608;28;20189;-69
2022/03/24 00:35:37;;;;;;;20.63;17.70;;;9.40;91.00;;;;;;5012532;28;20174;-66
2022/03/24 00:38:05;;;;;;;29.20;18.90;;;9.40;91.10;;;;;;5012553;28;20482;-67
2022/03/24 00:40:30;;;;;;;26.90;21.02;;;9.30;91.20;;;;;;5011417;28;20419;-69
2022/03/24 00:42:57;;;;;;;25.97;20.00;;;9.30;91.30;;;;;;5012803;28;20175;-68
2022/03/24 00:45:23;;;;;;;26.87;18.67;;;9.30;91.30;;;;;;5017367;28;20643;-69
2022/03/24 00:47:49;;;;;;;24.67;18.80;;;9.20;91.20;;;;;;5023083;28;20505;-68
2022/03/24 00:50:14;;;;;;;25.33;18.67;;;9.20;91.30;;;;;;5021127;28;20533;-69
2022/03/24 00:52:44;;;;;;;25.77;18.63;;;9.20;91.40;;;;;;5022149;28;20205;-67
2022/03/24 00:55:13;;;;;;;23.80;18.20;;;9.20;91.40;;;;;;5013601;28;20683;-68
2022/03/24 00:57:40;;;;;;;24.67;18.67;;;9.20;91.50;;;;;;5014270;28;20518;-70
2022/03/24 01:00:06;;;;;;;25.50;18.43;;;9.10;91.60;;;;;;5014299;28;20461;-68
2022/03/24 01:02:37;;;;;;;24.33;19.07;;;9.10;91.80;;;;;;5014991;28;20480;-67
2022/03/24 01:05:07;;;;;;;22.90;18.30;;;9.00;92.00;;;;;;5015763;28;20398;-67
2022/03/24 01:07:33;;;;;;;25.33;19.87;;;9.00;92.20;;;;;;5014812;28;20442;-68
2022/03/24 01:09:58;;;;;;;25.20;18.70;;;9.00;92.40;;;;;;5014933;28;20782;-66
2022/03/24 01:12:24;;;;;;;30.47;19.50;;;8.90;92.70;;;;;;5014867;28;20414;-69
2022/03/24 01:14:49;;;;;;;26.27;18.70;;;8.90;92.90;;;;;;5015337;28;20198;-67
2022/03/24 01:17:16;;;;;;;26.17;19.23;;;8.90;93.30;;;;;;5015349;28;20206;-70
2022/03/24 01:19:42;;;;;;;27.43;21.07;;;8.90;93.40;;;;;;5015067;28;20207;-69
2022/03/24 01:22:08;;;;;;;28.97;19.53;;;8.90;93.50;;;;;;5014513;28;20419;-70
2022/03/24 01:24:37;;;;;;;27.93;17.50;;;8.80;93.50;;;;;;5014736;28;20762;-70
2022/03/24 01:27:04;;;;;;;25.77;19.90;;;8.80;93.70;;;;;;5013404;28;20195;-70
2022/03/24 01:29:29;;;;;;;24.97;19.00;;;8.80;93.70;;;;;;5015455;28;20854;-69
2022/03/24 01:31:55;;;;;;;28.93;19.20;;;8.80;93.70;;;;;;5020139;28;20426;-69
2022/03/24 01:34:20;;;;;;;24.73;19.33;;;8.80;93.90;;;;;;5032666;28;20199;-70
2022/03/24 01:36:46;;;;;;;24.37;19.13;;;8.80;94.10;;;;;;5032900;28;20251;-70
2022/03/24 01:39:11;;;;;;;24.67;19.50;;;8.80;94.20;;;;;;5032770;28;20206;-67
2022/03/24 01:41:40;;;;;;;27.20;20.60;;;8.60;94.60;;;;;;5037326;28;20168;-66
2022/03/24 01:44:14;;;;;;;27.83;19.47;;;8.40;95.10;;;;;;5035226;28;20162;-69
2022/03/24 01:46:54;;;;;;;26.03;19.77;;;8.40;95.40;;;;;;5020898;28;20768;-69
2022/03/24 01:49:20;;;;;;;27.13;19.87;;;8.40;95.60;;;;;;5018884;28;20399;-69
2022/03/24 01:51:45;;;;;;;28.97;19.70;;;8.50;95.80;;;;;;5018835;28;20443;-69
2022/03/24 01:54:12;;;;;;;26.80;18.50;;;8.50;95.80;;;;;;5018962;28;20231;-69
2022/03/24 01:56:38;;;;;;;27.53;20.30;;;8.40;96.00;;;;;;5019163;28;20213;-69
2022/03/24 01:59:07;;;;;;;26.27;18.47;;;8.20;96.30;;;;;;5022339;28;20450;-69
2022/03/24 02:01:37;;;;;;;26.47;19.40;;;8.10;96.60;;;;;;5022439;28;20502;-70
2022/03/24 02:04:04;;;;;;;24.80;18.70;;;8.10;96.90;;;;;;5021953;28;20512;-70
2022/03/24 02:06:31;;;;;;;26.33;19.30;;;8.10;97.00;;;;;;5022217;28;20444;-70
2022/03/24 02:08:58;;;;;;;31.70;20.70;;;8.10;97.00;;;;;;5005741;28;20420;-70
2022/03/24 02:11:23;;;;;;;27.17;19.60;;;8.20;96.90;;;;;;5004168;28;20436;-70
2022/03/24 02:13:49;;;;;;;28.43;19.40;;;8.30;96.70;;;;;;5019188;28;20414;-69
2022/03/24 02:16:15;;;;;;;28.80;19.97;;;8.30;96.60;;;;;;5018630;28;20172;-70
2022/03/24 02:18:40;;;;;;;30.63;19.20;;;8.30;96.60;;;;;;5018021;28;20264;-69
2022/03/24 02:21:06;;;;;;;28.73;20.33;;;8.30;96.50;;;;;;5016580;28;20485;-69
2022/03/24 02:23:32;;;;;;;29.73;20.40;;;8.30;96.60;;;;;;5017202;28;20170;-69
2022/03/24 02:25:58;;;;;;;30.50;20.03;;;8.30;96.50;;;;;;5017584;28;20167;-70
2022/03/24 02:28:23;;;;;;;23.83;18.80;;;8.30;96.50;;;;;;5017260;28;20941;-69
2022/03/24 02:30:50;;;;;;;30.10;19.10;;;8.30;96.60;;;;;;5016571;28;20535;-69
2022/03/24 02:33:21;;;;;;;26.83;19.50;;;8.20;96.70;;;;;;5016957;28;20173;-69
2022/03/24 02:35:47;;;;;;;28.20;21.20;;;8.10;96.80;;;;;;5018125;28;20399;-69
2022/03/24 02:38:13;;;;;;;29.93;20.10;;;8.10;97.00;;;;;;5032096;28;20452;-70
2022/03/24 02:40:39;;;;;;;28.03;19.53;;;8.00;97.10;;;;;;5034854;28;20441;-69
2022/03/24 02:43:05;;;;;;;29.90;21.43;;;7.90;97.50;;;;;;5035724;28;20400;-68
2022/03/24 02:45:30;;;;;;;29.97;20.60;;;7.80;97.80;;;;;;5037076;28;20256;-66
2022/03/24 02:47:56;;;;;;;28.70;20.40;;;7.90;97.90;;;;;;5036512;28;20504;-68
2022/03/24 02:50:22;;;;;;;30.60;20.20;;;7.90;97.90;;;;;;5017650;28;20181;-70
2022/03/24 02:52:48;;;;;;;30.00;20.17;;;8.00;97.90;;;;;;5014110;28;20181;-69
2022/03/24 02:55:13;;;;;;;26.27;19.47;;;8.00;97.90;;;;;;5015663;28;20411;-69
2022/03/24 02:57:39;;;;;;;31.53;20.87;;;8.00;97.80;;;;;;5017394;28;20203;-69
2022/03/24 03:00:06;;;;;;;31.13;19.90;;;8.10;97.80;;;;;;5016344;28;20217;-69
2022/03/24 03:02:32;;;;;;;27.07;19.87;;;8.10;97.80;;;;;;5016401;28;20172;-69
2022/03/24 03:04:57;;;;;;;27.27;20.53;;;8.00;97.90;;;;;;5017047;28;20490;-69
2022/03/24 03:07:23;;;;;;;28.95;22.98;;;8.00;98.00;;;;;;5015011;28;20414;-68
2022/03/24 03:09:49;;;;;;;31.77;21.10;;;7.90;98.40;;;;;;5015338;28;20180;-67
2022/03/24 03:12:16;;;;;;;28.50;20.43;;;7.80;98.50;;;;;;5016218;28;20553;-68
2022/03/24 03:14:42;;;;;;;29.65;21.48;;;7.80;98.60;;;;;;5015212;28;20422;-69
2022/03/24 03:17:08;;;;;;;28.70;19.83;;;7.60;98.90;;;;;;5016363;28;20192;-68
2022/03/24 03:19:34;;;;;;;25.07;19.73;;;7.50;99.40;;;;;;5015543;28;20222;-69
2022/03/24 03:22:00;;;;;;;29.77;21.83;;;7.50;99.60;;;;;;5015968;28;20415;-69
2022/03/24 03:24:26;;;;;;;30.17;20.50;;;7.50;99.60;;;;;;5015494;28;20442;-69
2022/03/24 03:26:52;;;;;;;28.40;19.40;;;7.50;99.50;;;;;;5015243;28;20437;-68
2022/03/24 03:29:20;;;;;;;26.60;19.27;;;7.60;99.40;;;;;;5015729;28;20781;-68
2022/03/24 03:31:46;;;;;;;26.13;19.80;;;7.60;99.40;;;;;;5015383;28;20941;-69
2022/03/24 03:34:12;;;;;;;28.70;19.93;;;7.70;99.40;;;;;;5015993;28;20419;-69
2022/03/24 03:36:38;;;;;;;29.70;20.30;;;7.70;99.40;;;;;;5016185;28;21023;-68
2022/03/24 03:39:07;;;;;;;28.23;19.37;;;7.70;99.60;;;;;;5016200;28;20529;-66
2022/03/24 03:41:34;;;;;;;29.80;21.20;;;7.70;99.20;;;;;;5013406;28;20179;-69
2022/03/24 03:44:00;;;;;;;30.87;20.77;;;7.80;99.10;;;;;;5016204;28;20414;-68
2022/03/24 03:46:25;;;;;;;28.70;20.07;;;7.80;99.00;;;;;;5016205;28;20861;-69
2022/03/24 03:48:51;;;;;;;33.17;21.10;;;7.70;98.90;;;;;;5015739;28;20183;-69
2022/03/24 03:51:17;;;;;;;30.17;21.40;;;7.60;99.00;;;;;;5014170;28;20181;-68
2022/03/24 03:53:43;;;;;;;23.63;19.70;;;7.60;99.10;;;;;;5014218;28;20183;-68
2022/03/24 03:56:09;;;;;;;32.17;20.50;;;7.60;99.20;;;;;;5014717;28;20181;-68
2022/03/24 03:58:36;;;;;;;26.93;19.83;;;7.60;99.20;;;;;;5014365;28;20196;-69
2022/03/24 04:01:05;;;;;;;28.13;19.97;;;7.60;99.20;;;;;;5013840;28;20942;-69
2022/03/24 04:03:33;;;;;;;31.20;21.63;;;7.60;99.10;;;;;;5013683;28;20440;-68
2022/03/24 04:06:01;;;;;;;27.07;20.40;;;7.70;99.10;;;;;;5012665;28;20411;-69
2022/03/24 04:08:28;;;;;;;28.13;19.93;;;7.60;99.00;;;;;;5047048;23;20500;-72
2022/03/24 04:10:54;;;;;;;30.27;21.17;;;7.60;99.00;;;;;;5040159;28;20406;-72
2022/03/24 04:13:21;;;;;;;28.37;19.47;;;7.60;99.00;;;;;;5048459;28;20408;-71
2022/03/24 04:15:48;;;;;;;34.37;22.63;;;7.70;98.90;;;;;;5051490;28;20894;-71
2022/03/24 04:18:14;;;;;;;27.63;20.43;;;7.70;98.80;;;;;;5051464;28;20453;-70
2022/03/24 04:20:41;;;;;;;27.67;20.17;;;7.70;98.80;;;;;;5051462;28;20411;-71
2022/03/24 04:23:07;;;;;;;27.03;19.70;;;7.70;98.80;;;;;;5051244;28;20490;-70
2022/03/24 04:25:34;;;;;;;25.97;19.40;;;7.70;98.70;;;;;;5051663;28;20409;-71
2022/03/24 04:28:00;;;;;;;33.90;21.13;;;7.70;98.70;;;;;;5051329;28;20439;-72
2022/03/24 04:30:26;;;;;;;25.37;20.63;;;7.60;98.70;;;;;;5050650;28;20410;-71
2022/03/24 04:32:52;;;;;;;28.10;21.17;;;7.60;98.80;;;;;;5051444;28;20498;-72
2022/03/24 04:35:18;;;;;;;26.60;19.97;;;7.70;98.90;;;;;;5051310;28;20973;-71
2022/03/24 04:37:44;;;;;;;26.90;19.50;;;7.60;98.90;;;;;;5051334;28;20492;-71
2022/03/24 04:40:11;;;;;;;29.37;20.20;;;7.60;99.00;;;;;;5051142;28;20442;-71
2022/03/24 04:42:38;;;;;;;25.80;20.50;;;7.60;98.90;;;;;;5050823;28;20444;-71
2022/03/24 04:45:04;;;;;;;30.70;21.00;;;7.60;99.00;;;;;;5049911;28;20428;-71
2022/03/24 04:47:30;;;;;;;26.27;20.30;;;7.50;99.00;;;;;;5051296;28;20444;-71
2022/03/24 04:49:55;;;;;;;28.03;19.77;;;7.50;99.10;;;;;;5050855;28;20776;-71
2022/03/24 04:52:22;;;;;;;27.80;20.87;;;7.50;99.20;;;;;;5051156;28;20177;-71
2022/03/24 04:54:48;;;;;;;33.13;21.13;;;7.40;99.30;;;;;;5051020;28;20232;-71
2022/03/24 04:57:13;;;;;;;30.83;21.87;;;7.40;99.40;;;;;;5050963;28;20461;-71
2022/03/24 04:59:39;;;;;;;29.93;22.83;;;7.30;99.80;;;;;;5050965;28;20285;-72
2022/03/24 05:02:05;;;;;;;30.20;21.90;;;7.30;99.90;;;;;;5051289;28;20170;-70
2022/03/24 05:04:30;;;;;;;31.07;21.00;;;7.30;99.90;;;;;;5051093;28;20409;-72
2022/03/24 05:06:56;;;;;;;31.20;22.30;;;7.30;99.90;;;;;;5051096;28;20175;-71
2022/03/24 05:09:21;;;;;;;31.53;22.10;;;7.30;99.90;;;;;;5050534;28;20721;-70
2022/03/24 05:11:47;;;;;;;28.83;20.30;;;7.30;99.90;;;;;;5051305;28;20176;-73
2022/03/24 05:14:12;;;;;;;31.47;21.97;;;7.20;99.90;;;;;;5051291;28;20191;-71
2022/03/24 05:16:38;;;;;;;29.13;21.10;;;7.20;99.90;;;;;;5051659;28;20608;-71
2022/03/24 05:19:04;;;;;;;30.30;21.40;;;7.10;99.90;;;;;;5054979;28;20239;-73
2022/03/24 05:21:31;;;;;;;31.87;21.13;;;7.10;99.90;;;;;;5055295;28;20183;-71
2022/03/24 05:23:57;;;;;;;30.13;21.20;;;7.10;99.90;;;;;;5055007;28;20175;-70
2022/03/24 05:26:24;;;;;;;29.30;21.20;;;7.10;99.90;;;;;;5054813;28;20937;-72
2022/03/24 05:28:50;;;;;;;72.23;28.37;;;7.00;99.90;;;;;;5055079;28;20424;-72
2022/03/24 05:31:17;;;;;;;43.53;23.63;;;6.90;99.90;;;;;;5054740;28;20411;-71
2022/03/24 05:33:43;;;;;;;33.60;21.67;;;7.00;99.90;;;;;;5054994;28;20452;-71
2022/03/24 05:36:09;;;;;;;30.00;22.50;;;7.00;99.90;;;;;;5055286;28;20412;-72
2022/03/24 05:38:36;;;;;;;33.17;23.50;;;7.00;99.90;;;;;;5056020;28;20452;-70
2022/03/24 05:41:01;;;;;;;34.13;22.30;;;7.00;99.90;;;;;;5054390;28;20923;-71
2022/03/24 05:43:27;;;;;;;32.47;22.43;;;7.10;99.90;;;;;;5055881;28;20411;-71
2022/03/24 05:45:52;;;;;;;31.50;21.87;;;7.10;99.90;;;;;;5074463;28;20166;-71
2022/03/24 05:48:18;;;;;;;31.57;22.07;;;7.10;99.90;;;;;;5074648;28;20560;-71
2022/03/24 05:50:44;;;;;;;32.63;23.07;;;7.00;99.90;;;;;;5074397;28;20165;-72
2022/03/24 05:53:10;;;;;;;31.23;21.70;;;7.00;99.90;;;;;;5063862;28;20429;-70
2022/03/24 05:55:37;;;;;;;35.43;22.43;;;7.10;99.90;;;;;;5053849;28;20175;-71
2022/03/24 05:58:04;;;;;;;33.63;22.50;;;7.00;99.90;;;;;;5069497;28;20201;-71
2022/03/24 06:00:30;;;;;;;31.40;22.23;;;7.00;99.90;;;;;;5053446;28;20417;-72
2022/03/24 06:02:56;;;;;;;35.27;22.83;;;7.00;99.90;;;;;;5054397;28;20463;-72
2022/03/24 06:05:23;;;;;;;30.97;22.80;;;7.00;99.90;;;;;;5054094;28;20402;-72
2022/03/24 06:07:49;;;;;;;28.63;22.00;;;7.00;99.90;;;;;;5053601;28;20203;-72
2022/03/24 06:10:15;;;;;;;31.00;21.43;;;7.00;99.90;;;;;;5054098;28;20394;-72
2022/03/24 06:12:40;;;;;;;30.53;22.37;;;7.00;99.90;;;;;;5054221;28;20841;-71
2022/03/24 06:15:07;;;;;;;32.30;23.53;;;7.00;99.90;;;;;;5053758;28;20176;-72
2022/03/24 06:17:33;;;;;;;29.10;22.53;;;7.00;99.90;;;;;;5053791;28;20201;-71
2022/03/24 06:20:01;;;;;;;33.40;23.57;;;7.10;99.90;;;;;;5054640;28;20509;-71
2022/03/24 06:22:28;;;;;;;30.87;22.33;;;7.10;99.90;;;;;;5048851;28;20474;-70
2022/03/24 06:24:53;;;;;;;31.93;21.60;;;7.10;99.90;;;;;;5048075;28;20583;-70
2022/03/24 06:27:19;;;;;;;38.13;23.90;;;7.10;99.90;;;;;;5053564;28;20558;-71
2022/03/24 06:29:45;;;;;;;35.80;23.57;;;7.10;99.90;;;;;;5060831;28;20220;-70
2022/03/24 06:32:10;;;;;;;35.97;23.23;;;7.10;99.90;;;;;;5056122;28;20595;-71
2022/03/24 06:34:36;;;;;;;35.90;25.03;;;7.10;99.90;;;;;;5058065;28;20297;-71
2022/03/24 06:37:02;;;;;;;36.53;24.10;;;7.20;99.90;;;;;;5059100;28;20194;-70
2022/03/24 06:39:28;;;;;;;35.63;23.77;;;7.20;99.90;;;;;;5054619;28;20712;-69
2022/03/24 06:41:54;;;;;;;38.23;22.90;;;7.20;99.90;;;;;;5059506;28;20440;-70
2022/03/24 06:44:20;;;;;;;35.90;24.20;;;7.30;99.90;;;;;;5052007;28;20187;-69
2022/03/24 06:46:46;;;;;;;34.87;24.00;;;7.30;99.90;;;;;;5051171;28;20586;-70
2022/03/24 06:49:12;;;;;;;34.53;24.83;;;7.30;99.90;;;;;;5050679;28;20519;-70
2022/03/24 06:51:37;;;;;;;34.05;24.13;;;7.30;99.90;;;;;;5052458;28;20475;-68
2022/03/24 06:54:03;;;;;;;34.73;25.00;;;7.40;99.90;;;;;;5072770;28;20565;-69
2022/03/24 06:56:28;;;;;;;35.17;25.30;;;7.40;99.90;;;;;;5071402;28;20255;-70
2022/03/24 06:58:54;;;;;;;34.57;24.77;;;7.40;99.90;;;;;;5072118;28;20240;-70
2022/03/24 07:01:20;;;;;;;34.33;24.20;;;7.50;99.90;;;;;;5072190;28;20211;-69
2022/03/24 07:03:45;;;;;;;37.03;25.93;;;7.50;99.90;;;;;;5070921;28;20200;-70
2022/03/24 07:06:11;;;;;;;37.17;25.77;;;7.60;99.90;;;;;;5051970;28;20253;-70
2022/03/24 07:08:37;;;;;;;33.03;25.53;;;7.60;99.90;;;;;;5052255;28;20219;-70
2022/03/24 07:11:03;;;;;;;40.43;24.50;;;7.60;99.90;;;;;;5071644;28;20466;-70
2022/03/24 07:13:29;;;;;;;34.20;25.20;;;7.70;99.90;;;;;;5071875;28;20714;-70
2022/03/24 07:15:55;;;;;;;32.87;23.57;;;7.80;99.90;;;;;;5072022;28;20538;-70
2022/03/24 07:18:21;;;;;;;33.10;23.60;;;7.80;99.80;;;;;;5071678;28;20462;-70
2022/03/24 07:20:46;;;;;;;37.07;26.07;;;7.80;99.50;;;;;;5071902;28;20212;-70
2022/03/24 07:23:12;;;;;;;37.63;26.10;;;7.90;99.50;;;;;;5072320;28;20661;-69
2022/03/24 07:25:38;;;;;;;38.70;26.10;;;8.00;99.30;;;;;;5072053;28;20206;-70
2022/03/24 07:28:05;;;;;;;39.90;26.00;;;8.10;99.30;;;;;;5072204;28;20699;-70
2022/03/24 07:30:31;;;;;;;35.83;26.30;;;8.10;99.10;;;;;;5071537;28;20431;-69
2022/03/24 07:32:59;;;;;;;38.87;26.60;;;8.20;98.80;;;;;;5071192;28;20437;-69
2022/03/24 07:35:25;;;;;;;35.40;26.17;;;8.20;98.60;;;;;;5055323;28;21039;-69
2022/03/24 07:37:51;;;;;;;34.40;26.40;;;8.30;98.50;;;;;;5050055;28;20805;-69
2022/03/24 07:40:18;;;;;;;45.67;27.23;;;8.40;98.30;;;;;;5051585;28;20507;-69
2022/03/24 07:42:45;;;;;;;37.57;25.37;;;8.50;98.10;;;;;;5051708;28;20484;-70
2022/03/24 07:45:12;;;;;;;37.20;26.73;;;8.60;97.90;;;;;;5052074;28;20449;-71
2022/03/24 07:48:11;;;;;;;34.27;26.10;;;8.70;97.60;;;;;;5052210;28;20444;-71
2022/03/24 07:50:39;;;;;;;42.30;28.57;;;8.80;97.30;;;;;;5052321;28;20547;-71
2022/03/24 07:53:18;;;;;;;36.13;26.90;;;8.90;97.10;;;;;;5051474;28;20776;-71
2022/03/24 07:55:45;;;;;;;34.13;25.20;;;9.00;96.90;;;;;;5051608;28;20446;-70
2022/03/24 07:58:12;;;;;;;33.60;25.90;;;9.10;96.70;;;;;;5051107;28;20444;-71
2022/03/24 08:00:39;;;;;;;36.53;26.73;;;9.20;96.40;;;;;;5051472;28;20424;-70
2022/03/24 08:03:09;;;;;;;37.13;26.00;;;9.30;96.10;;;;;;5050810;28;20447;-71
2022/03/24 08:05:35;;;;;;;35.47;25.70;;;9.40;95.70;;;;;;5050884;28;20460;-71
2022/03/24 08:08:00;;;;;;;34.67;26.47;;;9.50;95.50;;;;;;5049272;28;21122;-71
2022/03/24 08:10:26;;;;;;;40.17;27.37;;;9.60;95.20;;;;;;5051064;28;20674;-70
2022/03/24 08:12:52;;;;;;;39.77;27.47;;;9.70;95.00;;;;;;5051049;28;20348;-70
2022/03/24 08:15:17;;;;;;;37.87;27.37;;;9.80;94.70;;;;;;5051306;28;20198;-70
2022/03/24 08:17:43;;;;;;;38.20;28.13;;;9.90;94.50;;;;;;5050442;28;20623;-71
2022/03/24 08:20:09;;;;;;;35.13;27.70;;;10.00;93.70;;;;;;5050165;28;20478;-70
2022/03/24 08:22:34;;;;;;;38.60;27.80;;;10.10;93.40;;;;;;5050805;28;20233;-70
2022/03/24 08:25:00;;;;;;;40.90;28.63;;;10.20;93.10;;;;;;5050741;28;20432;-69
2022/03/24 08:27:25;;;;;;;41.87;28.20;;;10.30;92.80;;;;;;5050799;28;20666;-70
2022/03/24 08:29:52;;;;;;;38.23;27.80;;;10.40;92.60;;;;;;5050519;28;20194;-70
2022/03/24 08:32:18;;;;;;;35.70;26.83;;;10.50;92.40;;;;;;5049457;28;20237;-69
2022/03/24 08:34:43;;;;;;;44.47;29.20;;;10.60;92.10;;;;;;5050497;28;20502;-70
2022/03/24 08:37:09;;;;;;;41.83;27.17;;;10.70;92.00;;;;;;5055396;28;20613;-71
2022/03/24 08:39:34;;;;;;;39.90;29.27;;;10.80;91.80;;;;;;5050919;28;20674;-71
2022/03/24 08:42:00;;;;;;;40.73;28.40;;;10.90;91.40;;;;;;5051693;28;20166;-70
2022/03/24 08:44:26;;;;;;;36.77;28.20;;;11.00;91.20;;;;;;5065313;28;20174;-71
2022/03/24 08:46:52;;;;;;;42.10;28.93;;;11.10;91.00;;;;;;5071675;28;20676;-70
2022/03/24 08:49:18;;;;;;;40.20;28.67;;;11.20;90.70;;;;;;5071716;28;20197;-68
2022/03/24 08:51:45;;;;;;;41.40;28.90;;;11.40;90.60;;;;;;5073330;28;20408;-68
2022/03/24 08:54:10;;;;;;;42.40;30.20;;;11.50;90.30;;;;;;5075527;28;20451;-68
2022/03/24 08:56:36;;;;;;;39.53;30.23;;;11.60;90.00;;;;;;5074320;28;20455;-68
2022/03/24 08:59:02;;;;;;;40.97;30.50;;;11.80;89.50;;;;;;5075108;28;20193;-69
2022/03/24 09:01:28;;;;;;;42.83;29.87;;;11.90;89.20;;;;;;5075237;28;20242;-68
2022/03/24 09:03:54;;;;;;;39.80;29.13;;;12.00;88.50;;;;;;5075377;28;20493;-69
2022/03/24 09:06:21;;;;;;;42.07;30.70;;;12.10;88.20;;;;;;5075259;28;20466;-69
2022/03/24 09:08:47;;;;;;;42.40;31.00;;;12.20;87.50;;;;;;5056158;28;20209;-68
2022/03/24 09:11:12;;;;;;;40.83;30.13;;;12.30;87.00;;;;;;5054754;28;20552;-69
2022/03/24 09:13:38;;;;;;;42.53;30.13;;;12.50;86.30;;;;;;5055290;28;20581;-68
2022/03/24 09:16:05;;;;;;;51.47;33.07;;;12.50;85.10;;;;;;5055047;28;20201;-69
2022/03/24 09:18:31;;;;;;;40.67;31.20;;;12.70;85.20;;;;;;5054869;28;20289;-69
2022/03/24 09:20:56;;;;;;;42.07;31.67;;;12.80;84.90;;;;;;5054870;28;20848;-69
2022/03/24 09:23:24;;;;;;;44.33;31.77;;;13.00;84.50;;;;;;5054720;28;20166;-69
2022/03/24 09:25:50;;;;;;;43.53;30.20;;;13.10;83.80;;;;;;5054742;28;20246;-69
2022/03/24 09:28:15;;;;;;;41.47;31.17;;;13.20;83.10;;;;;;5054895;28;20967;-69
2022/03/24 09:30:42;;;;;;;38.93;31.37;;;13.30;82.50;;;;;;5054084;28;20440;-69
2022/03/24 09:33:09;;;;;;;41.90;29.63;;;13.40;82.20;;;;;;5054877;28;20170;-69
2022/03/24 09:35:35;;;;;;;45.90;30.80;;;13.60;81.60;;;;;;5054755;28;20404;-68
2022/03/24 09:38:01;;;;;;;39.93;31.13;;;13.70;80.60;;;;;;5053650;28;20471;-69
2022/03/24 09:40:26;;;;;;;42.00;32.53;;;13.90;79.90;;;;;;5054560;28;20487;-69
2022/03/24 09:42:54;;;;;;;45.63;32.60;;;14.00;79.20;;;;;;5055073;28;20220;-69
2022/03/24 09:45:19;;;;;;;40.53;30.57;;;14.20;78.50;;;;;;5073468;28;20218;-69
2022/03/24 09:47:45;;;;;;;42.70;31.70;;;14.30;78.00;;;;;;5074054;28;20440;-68
2022/03/24 09:50:35;;;;;;;40.07;31.23;;;14.40;76.30;;;;;;5073777;28;20209;-68
2022/03/24 09:53:02;;;;;;;41.33;32.03;;;14.50;75.40;;;;;;5052699;28;20231;-69
2022/03/24 09:55:32;;;;;;;41.27;31.33;;;14.70;75.00;;;;;;5054321;28;20412;-69
2022/03/24 09:57:58;;;;;;;41.37;30.90;;;14.80;74.00;;;;;;5054120;28;20990;-68
2022/03/24 10:00:25;;;;;;;37.60;30.33;;;14.90;73.60;;;;;;5054155;28;20440;-69
2022/03/24 10:03:08;;;;;;;42.03;31.07;;;15.00;72.50;;;;;;5052694;28;20408;-69
2022/03/24 10:05:33;;;;;;;38.60;28.90;;;15.00;70.70;;;;;;5049062;28;20908;-69
2022/03/24 10:08:05;;;;;;;45.33;25.60;;;15.10;68.80;;;;;;5049913;28;20449;-69
2022/03/24 10:10:34;;;;;;;30.23;23.77;;;15.20;65.00;;;;;;5049709;28;20185;-68
2022/03/24 10:13:00;;;;;;;28.00;23.33;;;15.10;60.80;;;;;;5047966;28;21156;-70
2022/03/24 10:15:25;;;;;;;31.43;21.50;;;15.10;60.40;;;;;;5043346;28;20417;-69
2022/03/24 10:17:56;;;;;;;32.60;23.60;;;15.00;59.30;;;;;;5049564;28;20435;-68
2022/03/24 10:20:23;;;;;;;31.23;22.60;;;15.10;60.00;;;;;;5052834;28;20200;-68
2022/03/24 10:22:57;;;;;;;33.47;24.80;;;15.20;60.90;;;;;;5053574;28;20397;-68
2022/03/24 10:25:35;;;;;;;30.70;23.90;;;15.30;61.40;;;;;;5052309;28;20443;-68
2022/03/24 10:28:07;;;;;;;31.23;23.20;;;15.40;61.20;;;;;;5053399;28;20427;-68
2022/03/24 10:31:03;;;;;;;32.20;24.17;;;15.60;60.60;;;;;;5052768;28;20405;-69
2022/03/24 10:33:37;;;;;;;31.97;22.33;;;15.70;60.60;;;;;;5053884;28;20385;-68
2022/03/24 10:36:26;;;;;;;31.70;22.47;;;15.80;59.30;;;;;;5052434;28;20539;-69
2022/03/24 10:38:54;;;;;;;35.23;24.30;;;15.90;58.40;;;;;;5053638;28;20453;-69
2022/03/24 10:41:21;;;;;;;32.10;23.40;;;15.90;58.20;;;;;;5053120;28;20404;-69
2022/03/24 10:43:50;;;;;;;34.77;23.03;;;16.00;58.40;;;;;;5061297;28;20412;-68
2022/03/24 10:46:18;;;;;;;28.13;19.67;;;16.10;58.20;;;;;;5073452;28;20779;-68
2022/03/24 10:48:47;;;;;;;26.67;19.63;;;16.20;56.60;;;;;;5073355;28;20423;-68
2022/03/24 10:51:24;;;;;;;26.07;18.20;;;16.20;55.40;;;;;;5072673;28;20408;-68
2022/03/24 10:53:50;;;;;;;28.70;18.80;;;16.30;55.40;;;;;;5073269;28;20822;-68
2022/03/24 10:56:21;;;;;;;22.40;17.40;;;16.40;54.70;;;;;;5053486;28;20455;-68
2022/03/24 10:58:54;;;;;;;26.53;19.83;;;16.30;54.40;;;;;;5053056;28;20460;-68
2022/03/24 11:01:22;;;;;;;30.67;18.50;;;16.30;54.60;;;;;;5052598;28;20470;-68
2022/03/24 11:03:48;;;;;;;31.30;22.53;;;16.30;53.80;;;;;;5052888;28;20409;-68
2022/03/24 11:06:17;;;;;;;30.37;21.47;;;16.30;53.70;;;;;;5052692;28;20892;-68
2022/03/24 11:08:44;;;;;;;28.87;22.93;;;16.30;54.40;;;;;;5050548;28;20323;-68
2022/03/24 11:11:13;;;;;;;39.03;25.27;;;16.20;54.30;;;;;;5048158;28;20428;-69
2022/03/24 11:13:49;;;;;;;33.57;24.30;;;16.10;54.30;;;;;;5048271;28;20412;-70
2022/03/24 11:16:19;;;;;;;30.40;23.47;;;16.10;54.00;;;;;;5048265;28;20420;-70
2022/03/24 11:18:46;;;;;;;30.17;23.50;;;16.20;53.80;;;;;;5048390;28;20594;-69
2022/03/24 11:21:20;;;;;;;32.63;22.93;;;16.20;53.40;;;;;;5048135;28;20963;-69
2022/03/24 11:23:46;;;;;;;31.10;23.70;;;16.30;53.90;;;;;;5048530;28;20409;-70
2022/03/24 11:26:13;;;;;;;27.40;22.37;;;16.30;53.40;;;;;;5048619;28;20421;-70
2022/03/24 11:28:40;;;;;;;27.60;22.77;;;16.30;53.70;;;;;;5048178;28;20452;-71
2022/03/24 11:31:15;;;;;;;40.63;27.07;;;16.30;52.50;;;;;;5047861;28;20451;-70
2022/03/24 11:33:49;;;;;;;28.67;22.03;;;16.30;52.50;;;;;;5048957;28;20439;-70
2022/03/24 11:36:21;;;;;;;33.80;25.17;;;16.30;53.40;;;;;;5048074;28;20479;-70
2022/03/24 11:38:49;;;;;;;29.90;26.67;;;16.30;53.30;;;;;;5046688;28;20432;-70
2022/03/24 11:41:44;;;;;;;29.10;24.70;;;16.30;53.70;;;;;;5049342;28;20182;-70
2022/03/24 11:44:18;;;;;;;30.13;24.57;;;16.50;53.60;;;;;;5063068;28;20414;-70
2022/03/24 11:46:54;;;;;;;30.17;24.10;;;16.50;53.50;;;;;;5031432;28;20515;-70
2022/03/24 11:49:28;;;;;;;32.17;25.40;;;16.60;53.30;;;;;;5047758;28;20433;-70
2022/03/24 11:51:56;;;;;;;33.93;25.50;;;16.60;53.30;;;;;;5048155;28;20451;-70
2022/03/24 11:54:33;;;;;;;32.17;24.80;;;16.60;53.10;;;;;;5047605;28;20412;-70
2022/03/24 11:57:21;;;;;;;32.90;27.70;;;16.70;53.30;;;;;;5047739;28;20425;-70
2022/03/24 11:59:47;;;;;;;32.03;25.43;;;16.70;52.60;;;;;;5052229;28;20455;-70
2022/03/24 12:02:15;;;;;;;37.40;25.60;;;16.60;52.20;;;;;;5048000;28;20507;-70
2022/03/24 12:04:57;;;;;;;36.40;27.30;;;16.70;52.80;;;;;;5034378;28;20413;-69
2022/03/24 12:07:24;;;;;;;37.57;27.27;;;16.70;52.80;;;;;;5048566;28;20420;-69
2022/03/24 12:10:06;;;;;;;36.20;25.57;;;16.60;52.50;;;;;;5047365;28;20435;-69
2022/03/24 12:12:32;;;;;;;36.80;26.47;;;16.50;52.30;;;;;;5048080;28;20417;-70
2022/03/24 12:14:58;;;;;;;37.07;26.10;;;16.50;52.50;;;;;;5047771;28;20443;-69
2022/03/24 12:17:31;;;;;;;32.37;25.40;;;16.40;52.00;;;;;;5048168;28;20420;-70
2022/03/24 12:19:59;;;;;;;33.17;25.53;;;16.40;52.20;;;;;;5044988;28;20513;-70
2022/03/24 12:22:32;;;;;;;36.53;25.67;;;16.30;52.60;;;;;;5051125;28;20547;-70
2022/03/24 12:25:00;;;;;;;33.30;27.17;;;16.40;52.30;;;;;;5055574;28;21310;-70
2022/03/24 12:27:31;;;;;;;37.83;27.30;;;16.50;52.40;;;;;;5059564;28;20863;-71
2022/03/24 12:30:09;;;;;;;35.03;26.23;;;16.40;52.30;;;;;;5064783;28;20471;-70
2022/03/24 12:32:35;;;;;;;35.30;28.90;;;16.40;52.60;;;;;;5057338;28;20846;-71
2022/03/24 12:35:03;;;;;;;32.50;26.90;;;16.50;52.90;;;;;;5060059;28;20492;-70